West Bush, New York
Current Conditions -  °F | °C
As of 1:55 AM on Saturday 01 Nov 2014 (Local Time) from KNY0 Reporting Station
Overcast Overcast  
Wind Chill: 35°   Ceiling: 4900
Heat Index: 41°   Visibility: 10mi
Dew Point: 31°   Wind: 9mph
Humidity: 68%   Direction: 40°NE
Pressure: 29.96"   Gusts: NA
Location:  43.1204°N, 74.3629°W
Report Text: KNY0 010555Z AUTO 04008KT 10SM SCT042 OVC049 05/M01 A2996 RMK AO2 T00481006 10060 20048 400911023
Loading
Personal Weather Stations






























Interactive Weather Map
Tropical Storm Tracking
New forecast layout! Learn more

10-Day Weather Forecast

Advertisements
Track Severe Weather on mobile